sensor_id;sensor_type;location;lat;lon;timestamp;temperature;humidity
6520;DHT22;3293;51.690;5.982;2023-09-18T00:03:19;18.90;99.90
6520;DHT22;3293;51.690;5.982;2023-09-18T00:08:20;18.90;99.90
6520;DHT22;3293;51.690;5.982;2023-09-18T00:13:21;18.90;99.90
6520;DHT22;3293;51.690;5.982;2023-09-18T00:18:21;18.80;99.90
6520;DHT22;3293;51.690;5.982;2023-09-18T00:23:21;18.80;99.90
6520;DHT22;3293;51.690;5.982;2023-09-18T00:28:20;18.80;99.90
6520;DHT22;3293;51.690;5.982;2023-09-18T00:33:20;18.90;99.90
6520;DHT22;3293;51.690;5.982;2023-09-18T00:38:20;18.90;99.90
6520;DHT22;3293;51.690;5.982;2023-09-18T00:43:20;18.80;99.90
6520;DHT22;3293;51.690;5.982;2023-09-18T00:48:22;18.80;99.90
6520;DHT22;3293;51.690;5.982;2023-09-18T00:53:23;18.80;99.90
6520;DHT22;3293;51.690;5.982;2023-09-18T00:58:24;18.80;99.90
6520;DHT22;3293;51.690;5.982;2023-09-18T01:03:25;18.80;99.90
6520;DHT22;3293;51.690;5.982;2023-09-18T01:08:25;18.80;99.90
6520;DHT22;3293;51.690;5.982;2023-09-18T01:13:30;18.80;99.90
6520;DHT22;3293;51.690;5.982;2023-09-18T01:18:33;18.80;99.90
6520;DHT22;3293;51.690;5.982;2023-09-18T01:23:33;18.80;99.90
6520;DHT22;3293;51.690;5.982;2023-09-18T01:28:33;18.80;99.90
6520;DHT22;3293;51.690;5.982;2023-09-18T01:33:34;18.80;99.90
6520;DHT22;3293;51.690;5.982;2023-09-18T01:38:35;18.70;99.90
6520;DHT22;3293;51.690;5.982;2023-09-18T01:43:35;18.80;99.90
6520;DHT22;3293;51.690;5.982;2023-09-18T01:48:35;18.80;99.90
6520;DHT22;3293;51.690;5.982;2023-09-18T01:53:35;18.80;99.90
6520;DHT22;3293;51.690;5.982;2023-09-18T01:58:35;18.90;99.90
6520;DHT22;3293;51.690;5.982;2023-09-18T02:03:35;18.90;99.90
6520;DHT22;3293;51.690;5.982;2023-09-18T02:08:35;19.00;99.90
6520;DHT22;3293;51.690;5.982;2023-09-18T02:13:35;19.00;99.90
6520;DHT22;3293;51.690;5.982;2023-09-18T02:18:35;19.00;99.90
6520;DHT22;3293;51.690;5.982;2023-09-18T02:23:35;19.00;99.90
6520;DHT22;3293;51.690;5.982;2023-09-18T02:28:36;19.00;99.90
6520;DHT22;3293;51.690;5.982;2023-09-18T02:33:39;19.10;99.90
6520;DHT22;3293;51.690;5.982;2023-09-18T02:38:39;19.10;99.90
6520;DHT22;3293;51.690;5.982;2023-09-18T02:43:39;19.10;99.90
6520;DHT22;3293;51.690;5.982;2023-09-18T02:48:39;19.10;99.90
6520;DHT22;3293;51.690;5.982;2023-09-18T02:53:39;19.10;99.90
6520;DHT22;3293;51.690;5.982;2023-09-18T02:58:39;19.10;99.90
6520;DHT22;3293;51.690;5.982;2023-09-18T03:03:39;19.10;99.90
6520;DHT22;3293;51.690;5.982;2023-09-18T03:08:42;19.10;99.90
6520;DHT22;3293;51.690;5.982;2023-09-18T03:13:44;19.00;99.90
6520;DHT22;3293;51.690;5.982;2023-09-18T03:18:47;19.00;99.90
6520;DHT22;3293;51.690;5.982;2023-09-18T03:23:46;18.90;99.90
6520;DHT22;3293;51.690;5.982;2023-09-18T03:28:46;18.90;99.90
6520;DHT22;3293;51.690;5.982;2023-09-18T03:33:46;18.90;99.90
6520;DHT22;3293;51.690;5.982;2023-09-18T03:38:46;18.80;99.90
6520;DHT22;3293;51.690;5.982;2023-09-18T03:43:46;18.90;99.90
6520;DHT22;3293;51.690;5.982;2023-09-18T03:48:46;18.90;99.90
6520;DHT22;3293;51.690;5.982;2023-09-18T03:53:46;19.00;99.90
6520;DHT22;3293;51.690;5.982;2023-09-18T03:58:48;19.10;99.90
6520;DHT22;3293;51.690;5.982;2023-09-18T04:03:49;19.20;99.90
6520;DHT22;3293;51.690;5.982;2023-09-18T04:08:49;19.20;99.90
6520;DHT22;3293;51.690;5.982;2023-09-18T04:13:49;19.20;99.90
6520;DHT22;3293;51.690;5.982;2023-09-18T04:18:49;19.20;99.90
6520;DHT22;3293;51.690;5.982;2023-09-18T04:23:49;19.30;99.90
6520;DHT22;3293;51.690;5.982;2023-09-18T04:28:56;19.30;99.90
6520;DHT22;3293;51.690;5.982;2023-09-18T04:33:56;19.30;99.90
6520;DHT22;3293;51.690;5.982;2023-09-18T04:38:56;19.30;99.90
6520;DHT22;3293;51.690;5.982;2023-09-18T04:43:56;19.40;99.90
6520;DHT22;3293;51.690;5.982;2023-09-18T04:48:56;19.40;99.90
6520;DHT22;3293;51.690;5.982;2023-09-18T04:53:55;19.50;99.90
6520;DHT22;3293;51.690;5.982;2023-09-18T04:58:55;19.60;99.90
6520;DHT22;3293;51.690;5.982;2023-09-18T05:03:57;19.70;99.90
6520;DHT22;3293;51.690;5.982;2023-09-18T05:08:57;19.70;99.90
6520;DHT22;3293;51.690;5.982;2023-09-18T05:13:57;19.60;99.90
6520;DHT22;3293;51.690;5.982;2023-09-18T05:18:57;19.60;99.90
6520;DHT22;3293;51.690;5.982;2023-09-18T05:23:57;19.50;99.90
6520;DHT22;3293;51.690;5.982;2023-09-18T05:28:57;19.50;99.90
6520;DHT22;3293;51.690;5.982;2023-09-18T05:33:58;19.40;99.90
6520;DHT22;3293;51.690;5.982;2023-09-18T05:38:58;19.40;99.90
6520;DHT22;3293;51.690;5.982;2023-09-18T05:43:58;19.40;99.90
6520;DHT22;3293;51.690;5.982;2023-09-18T05:48:58;19.30;99.90
6520;DHT22;3293;51.690;5.982;2023-09-18T05:53:59;19.40;99.90
6520;DHT22;3293;51.690;5.982;2023-09-18T05:58:59;19.40;99.90
6520;DHT22;3293;51.690;5.982;2023-09-18T06:03:59;19.40;99.90
6520;DHT22;3293;51.690;5.982;2023-09-18T06:08:59;19.50;99.90
6520;DHT22;3293;51.690;5.982;2023-09-18T06:13:59;19.50;99.90
6520;DHT22;3293;51.690;5.982;2023-09-18T06:18:59;19.60;99.90
6520;DHT22;3293;51.690;5.982;2023-09-18T06:24:00;19.60;99.90
6520;DHT22;3293;51.690;5.982;2023-09-18T06:29:00;19.70;99.90
6520;DHT22;3293;51.690;5.982;2023-09-18T06:34:00;19.80;99.90
6520;DHT22;3293;51.690;5.982;2023-09-18T06:38:59;19.70;99.90
6520;DHT22;3293;51.690;5.982;2023-09-18T06:44:00;19.60;99.90
6520;DHT22;3293;51.690;5.982;2023-09-18T06:49:02;19.60;99.90
6520;DHT22;3293;51.690;5.982;2023-09-18T06:54:03;19.60;99.90
6520;DHT22;3293;51.690;5.982;2023-09-18T06:59:03;19.70;99.90
6520;DHT22;3293;51.690;5.982;2023-09-18T07:04:03;19.80;99.90
6520;DHT22;3293;51.690;5.982;2023-09-18T07:09:04;19.90;99.90
6520;DHT22;3293;51.690;5.982;2023-09-18T07:14:06;19.90;99.90
6520;DHT22;3293;51.690;5.982;2023-09-18T07:19:07;19.90;99.90
6520;DHT22;3293;51.690;5.982;2023-09-18T07:24:11;19.90;99.90
6520;DHT22;3293;51.690;5.982;2023-09-18T07:29:16;20.10;99.90
6520;DHT22;3293;51.690;5.982;2023-09-18T07:34:16;20.10;99.90
6520;DHT22;3293;51.690;5.982;2023-09-18T07:39:16;20.10;99.90
6520;DHT22;3293;51.690;5.982;2023-09-18T07:44:20;20.10;99.90
6520;DHT22;3293;51.690;5.982;2023-09-18T07:49:20;20.30;99.90
6520;DHT22;3293;51.690;5.982;2023-09-18T07:54:20;20.20;99.90
6520;DHT22;3293;51.690;5.982;2023-09-18T07:59:20;20.20;99.90
6520;DHT22;3293;51.690;5.982;2023-09-18T08:04:20;20.20;99.90
6520;DHT22;3293;51.690;5.982;2023-09-18T08:09:20;20.40;99.90
6520;DHT22;3293;51.690;5.982;2023-09-18T08:14:23;20.50;99.90
6520;DHT22;3293;51.690;5.982;2023-09-18T08:19:23;20.50;99.90
6520;DHT22;3293;51.690;5.982;2023-09-18T08:24:23;20.70;99.90
6520;DHT22;3293;51.690;5.982;2023-09-18T08:29:23;20.90;99.90
6520;DHT22;3293;51.690;5.982;2023-09-18T08:34:23;21.10;99.90
6520;DHT22;3293;51.690;5.982;2023-09-18T08:39:23;21.20;99.90
6520;DHT22;3293;51.690;5.982;2023-09-18T08:44:27;21.40;99.90
6520;DHT22;3293;51.690;5.982;2023-09-18T08:49:27;21.20;99.90
6520;DHT22;3293;51.690;5.982;2023-09-18T08:54:28;21.30;99.90
6520;DHT22;3293;51.690;5.982;2023-09-18T08:59:29;21.30;99.90
6520;DHT22;3293;51.690;5.982;2023-09-18T09:04:30;21.50;99.90
6520;DHT22;3293;51.690;5.982;2023-09-18T09:09:30;21.60;99.90
6520;DHT22;3293;51.690;5.982;2023-09-18T09:14:30;21.80;99.90
6520;DHT22;3293;51.690;5.982;2023-09-18T09:19:32;22.00;99.90
6520;DHT22;3293;51.690;5.982;2023-09-18T09:24:42;22.00;99.90
6520;DHT22;3293;51.690;5.982;2023-09-18T09:29:57;22.10;99.90
6520;DHT22;3293;51.690;5.982;2023-09-18T09:34:57;22.20;99.90
6520;DHT22;3293;51.690;5.982;2023-09-18T09:40:03;22.20;99.90
6520;DHT22;3293;51.690;5.982;2023-09-18T09:45:14;22.20;99.90
6520;DHT22;3293;51.690;5.982;2023-09-18T09:50:18;22.30;99.90
6520;DHT22;3293;51.690;5.982;2023-09-18T09:55:38;22.40;99.90
6520;DHT22;3293;51.690;5.982;2023-09-18T10:00:45;22.30;99.90
6520;DHT22;3293;51.690;5.982;2023-09-18T10:05:52;22.30;99.90
6520;DHT22;3293;51.690;5.982;2023-09-18T10:11:15;22.30;99.90
6520;DHT22;3293;51.690;5.982;2023-09-18T10:16:17;22.60;99.90
6520;DHT22;3293;51.690;5.982;2023-09-18T10:27:02;23.00;99.90
6520;DHT22;3293;51.690;5.982;2023-09-18T10:32:04;23.20;99.30
6520;DHT22;3293;51.690;5.982;2023-09-18T10:37:05;23.60;98.70
6520;DHT22;3293;51.690;5.982;2023-09-18T10:42:08;23.80;96.00
6520;DHT22;3293;51.690;5.982;2023-09-18T10:47:10;23.80;95.70
6520;DHT22;3293;51.690;5.982;2023-09-18T10:52:12;23.90;95.00
6520;DHT22;3293;51.690;5.982;2023-09-18T10:57:13;24.00;93.90
6520;DHT22;3293;51.690;5.982;2023-09-18T11:02:17;23.90;93.70
6520;DHT22;3293;51.690;5.982;2023-09-18T11:07:23;23.80;93.70
6520;DHT22;3293;51.690;5.982;2023-09-18T11:12:45;23.60;93.00
6520;DHT22;3293;51.690;5.982;2023-09-18T11:17:59;23.20;94.50
6520;DHT22;3293;51.690;5.982;2023-09-18T11:23:15;23.20;94.80
6520;DHT22;3293;51.690;5.982;2023-09-18T11:28:26;23.20;94.50
6520;DHT22;3293;51.690;5.982;2023-09-18T11:33:39;23.30;94.60
6520;DHT22;3293;51.690;5.982;2023-09-18T11:38:58;23.50;95.10
6520;DHT22;3293;51.690;5.982;2023-09-18T11:49:19;23.30;93.60
6520;DHT22;3293;51.690;5.982;2023-09-18T11:54:22;23.40;92.40
6520;DHT22;3293;51.690;5.982;2023-09-18T11:59:39;23.30;92.50
6520;DHT22;3293;51.690;5.982;2023-09-18T12:04:40;23.50;93.90
6520;DHT22;3293;51.690;5.982;2023-09-18T12:09:40;23.60;92.20
6520;DHT22;3293;51.690;5.982;2023-09-18T12:14:41;24.00;91.20
6520;DHT22;3293;51.690;5.982;2023-09-18T12:19:52;24.10;90.50
6520;DHT22;3293;51.690;5.982;2023-09-18T12:24:53;24.20;89.40
6520;DHT22;3293;51.690;5.982;2023-09-18T12:29:54;24.00;88.20
6520;DHT22;3293;51.690;5.982;2023-09-18T12:34:54;23.90;88.70
6520;DHT22;3293;51.690;5.982;2023-09-18T12:39:54;24.00;88.40
6520;DHT22;3293;51.690;5.982;2023-09-18T12:44:54;23.90;88.50
6520;DHT22;3293;51.690;5.982;2023-09-18T12:50:02;24.00;90.10
6520;DHT22;3293;51.690;5.982;2023-09-18T12:55:03;23.80;86.40
6520;DHT22;3293;51.690;5.982;2023-09-18T13:00:09;23.60;90.00
6520;DHT22;3293;51.690;5.982;2023-09-18T13:05:19;23.50;86.80
6520;DHT22;3293;51.690;5.982;2023-09-18T13:10:19;23.40;88.80
6520;DHT22;3293;51.690;5.982;2023-09-18T13:15:25;23.30;81.40
6520;DHT22;3293;51.690;5.982;2023-09-18T13:20:28;23.30;85.80
6520;DHT22;3293;51.690;5.982;2023-09-18T13:25:40;23.60;86.30
6520;DHT22;3293;51.690;5.982;2023-09-18T13:30:43;23.40;86.10
6520;DHT22;3293;51.690;5.982;2023-09-18T13:35:44;23.40;86.40
6520;DHT22;3293;51.690;5.982;2023-09-18T13:40:46;23.40;87.00
6520;DHT22;3293;51.690;5.982;2023-09-18T13:45:47;23.50;84.40
6520;DHT22;3293;51.690;5.982;2023-09-18T13:50:48;23.60;79.10
6520;DHT22;3293;51.690;5.982;2023-09-18T13:55:48;24.00;72.60
6520;DHT22;3293;51.690;5.982;2023-09-18T14:00:48;24.10;71.60
6520;DHT22;3293;51.690;5.982;2023-09-18T14:05:49;23.90;72.80
6520;DHT22;3293;51.690;5.982;2023-09-18T14:10:50;23.90;75.30
6520;DHT22;3293;51.690;5.982;2023-09-18T14:15:50;23.80;64.90
6520;DHT22;3293;51.690;5.982;2023-09-18T14:20:50;23.60;69.40
6520;DHT22;3293;51.690;5.982;2023-09-18T14:25:50;23.50;71.90
6520;DHT22;3293;51.690;5.982;2023-09-18T14:30:51;23.50;73.10
6520;DHT22;3293;51.690;5.982;2023-09-18T14:35:51;23.50;77.70
6520;DHT22;3293;51.690;5.982;2023-09-18T14:40:51;23.50;78.20
6520;DHT22;3293;51.690;5.982;2023-09-18T14:45:51;23.50;71.50
6520;DHT22;3293;51.690;5.982;2023-09-18T14:50:55;23.40;71.40
6520;DHT22;3293;51.690;5.982;2023-09-18T14:55:55;23.40;72.40
6520;DHT22;3293;51.690;5.982;2023-09-18T15:00:57;23.50;69.70
6520;DHT22;3293;51.690;5.982;2023-09-18T15:05:57;23.50;68.30
6520;DHT22;3293;51.690;5.982;2023-09-18T15:10:57;23.30;65.70
6520;DHT22;3293;51.690;5.982;2023-09-18T15:15:57;23.20;66.40
6520;DHT22;3293;51.690;5.982;2023-09-18T15:20:57;23.10;69.00
6520;DHT22;3293;51.690;5.982;2023-09-18T15:25:57;23.10;71.70
6520;DHT22;3293;51.690;5.982;2023-09-18T15:30:57;23.10;68.80
6520;DHT22;3293;51.690;5.982;2023-09-18T15:35:57;23.10;68.30
6520;DHT22;3293;51.690;5.982;2023-09-18T15:40:57;23.00;69.00
6520;DHT22;3293;51.690;5.982;2023-09-18T15:45:57;23.00;69.10
6520;DHT22;3293;51.690;5.982;2023-09-18T15:50:58;23.00;69.20
6520;DHT22;3293;51.690;5.982;2023-09-18T15:55:58;22.90;68.20
6520;DHT22;3293;51.690;5.982;2023-09-18T16:00:59;22.80;65.50
6520;DHT22;3293;51.690;5.982;2023-09-18T16:06:00;22.00;77.50
6520;DHT22;3293;51.690;5.982;2023-09-18T16:11:00;21.00;92.20
6520;DHT22;3293;51.690;5.982;2023-09-18T16:16:00;19.80;99.10
6520;DHT22;3293;51.690;5.982;2023-09-18T16:21:02;18.90;99.90
6520;DHT22;3293;51.690;5.982;2023-09-18T16:26:02;18.40;99.90
6520;DHT22;3293;51.690;5.982;2023-09-18T16:31:03;18.10;99.90
6520;DHT22;3293;51.690;5.982;2023-09-18T16:36:07;17.70;99.90
6520;DHT22;3293;51.690;5.982;2023-09-18T16:41:08;17.50;99.90
6520;DHT22;3293;51.690;5.982;2023-09-18T16:46:08;17.40;99.90
6520;DHT22;3293;51.690;5.982;2023-09-18T16:51:09;17.30;99.90
6520;DHT22;3293;51.690;5.982;2023-09-18T16:56:09;17.30;99.90
6520;DHT22;3293;51.690;5.982;2023-09-18T17:01:09;17.30;99.90
6520;DHT22;3293;51.690;5.982;2023-09-18T17:06:08;17.50;99.90
6520;DHT22;3293;51.690;5.982;2023-09-18T17:11:08;17.80;99.90
6520;DHT22;3293;51.690;5.982;2023-09-18T17:16:09;18.00;99.90
6520;DHT22;3293;51.690;5.982;2023-09-18T17:21:10;18.00;99.90
6520;DHT22;3293;51.690;5.982;2023-09-18T17:26:10;17.90;99.90
6520;DHT22;3293;51.690;5.982;2023-09-18T17:31:11;17.70;99.90
6520;DHT22;3293;51.690;5.982;2023-09-18T17:36:11;17.70;99.90
6520;DHT22;3293;51.690;5.982;2023-09-18T17:41:11;17.50;99.90
6520;DHT22;3293;51.690;5.982;2023-09-18T17:46:11;17.50;99.90
6520;DHT22;3293;51.690;5.982;2023-09-18T17:51:11;17.40;99.90
6520;DHT22;3293;51.690;5.982;2023-09-18T17:56:11;17.40;99.90
6520;DHT22;3293;51.690;5.982;2023-09-18T18:01:11;17.40;99.90
6520;DHT22;3293;51.690;5.982;2023-09-18T18:06:11;17.40;99.90
6520;DHT22;3293;51.690;5.982;2023-09-18T18:11:13;17.30;99.90
6520;DHT22;3293;51.690;5.982;2023-09-18T18:16:13;17.30;99.90
6520;DHT22;3293;51.690;5.982;2023-09-18T18:21:13;17.30;99.90
6520;DHT22;3293;51.690;5.982;2023-09-18T18:26:17;17.30;99.90
6520;DHT22;3293;51.690;5.982;2023-09-18T18:31:18;17.30;99.90
6520;DHT22;3293;51.690;5.982;2023-09-18T18:36:19;17.30;99.90
6520;DHT22;3293;51.690;5.982;2023-09-18T18:41:19;17.30;99.90
6520;DHT22;3293;51.690;5.982;2023-09-18T18:46:19;17.40;99.90
6520;DHT22;3293;51.690;5.982;2023-09-18T18:51:20;17.40;99.90
6520;DHT22;3293;51.690;5.982;2023-09-18T18:56:20;17.40;99.90
6520;DHT22;3293;51.690;5.982;2023-09-18T19:01:20;17.30;99.90
6520;DHT22;3293;51.690;5.982;2023-09-18T19:06:23;17.30;99.90
6520;DHT22;3293;51.690;5.982;2023-09-18T19:11:23;17.20;99.90
6520;DHT22;3293;51.690;5.982;2023-09-18T19:16:23;17.20;99.90
6520;DHT22;3293;51.690;5.982;2023-09-18T19:21:23;17.20;99.90
6520;DHT22;3293;51.690;5.982;2023-09-18T19:26:25;17.20;99.90
6520;DHT22;3293;51.690;5.982;2023-09-18T19:31:25;17.30;99.90
6520;DHT22;3293;51.690;5.982;2023-09-18T19:36:25;17.30;99.90
6520;DHT22;3293;51.690;5.982;2023-09-18T19:41:25;17.30;99.90
6520;DHT22;3293;51.690;5.982;2023-09-18T19:46:27;17.20;99.90
6520;DHT22;3293;51.690;5.982;2023-09-18T19:51:28;17.10;99.90
6520;DHT22;3293;51.690;5.982;2023-09-18T19:56:28;17.00;99.90
6520;DHT22;3293;51.690;5.982;2023-09-18T20:01:29;17.00;99.90
6520;DHT22;3293;51.690;5.982;2023-09-18T20:06:33;17.00;99.90
6520;DHT22;3293;51.690;5.982;2023-09-18T20:11:34;16.90;99.90
6520;DHT22;3293;51.690;5.982;2023-09-18T20:16:34;16.90;99.90
6520;DHT22;3293;51.690;5.982;2023-09-18T20:21:35;16.80;99.90
6520;DHT22;3293;51.690;5.982;2023-09-18T20:26:35;16.80;99.90
6520;DHT22;3293;51.690;5.982;2023-09-18T20:31:35;16.80;99.90
6520;DHT22;3293;51.690;5.982;2023-09-18T20:36:39;16.70;99.90
6520;DHT22;3293;51.690;5.982;2023-09-18T20:41:39;16.70;99.90
6520;DHT22;3293;51.690;5.982;2023-09-18T20:46:40;16.70;99.90
6520;DHT22;3293;51.690;5.982;2023-09-18T20:51:40;16.80;99.90
6520;DHT22;3293;51.690;5.982;2023-09-18T20:56:41;16.80;99.90
6520;DHT22;3293;51.690;5.982;2023-09-18T21:01:42;16.70;99.90
6520;DHT22;3293;51.690;5.982;2023-09-18T21:06:44;16.70;99.90
6520;DHT22;3293;51.690;5.982;2023-09-18T21:11:44;16.60;99.90
6520;DHT22;3293;51.690;5.982;2023-09-18T21:16:45;16.50;99.90
6520;DHT22;3293;51.690;5.982;2023-09-18T21:21:45;16.40;99.90
6520;DHT22;3293;51.690;5.982;2023-09-18T21:26:46;16.30;99.90
6520;DHT22;3293;51.690;5.982;2023-09-18T21:31:46;16.20;99.90
6520;DHT22;3293;51.690;5.982;2023-09-18T21:36:47;16.20;99.90
6520;DHT22;3293;51.690;5.982;2023-09-18T21:41:49;16.10;99.90
6520;DHT22;3293;51.690;5.982;2023-09-18T21:46:50;16.10;99.90
6520;DHT22;3293;51.690;5.982;2023-09-18T21:51:50;16.10;99.90
6520;DHT22;3293;51.690;5.982;2023-09-18T21:56:50;16.00;99.90
6520;DHT22;3293;51.690;5.982;2023-09-18T22:01:51;15.90;99.90
6520;DHT22;3293;51.690;5.982;2023-09-18T22:06:55;15.80;99.90
6520;DHT22;3293;51.690;5.982;2023-09-18T22:11:55;15.90;99.90
6520;DHT22;3293;51.690;5.982;2023-09-18T22:16:56;15.90;99.90
6520;DHT22;3293;51.690;5.982;2023-09-18T22:21:56;15.70;99.90
6520;DHT22;3293;51.690;5.982;2023-09-18T22:26:56;15.70;99.90
6520;DHT22;3293;51.690;5.982;2023-09-18T22:31:56;15.70;99.90
6520;DHT22;3293;51.690;5.982;2023-09-18T22:36:57;15.60;99.90
6520;DHT22;3293;51.690;5.982;2023-09-18T23:02:51;15.40;99.90
6520;DHT22;3293;51.690;5.982;2023-09-18T23:07:54;15.40;99.90
6520;DHT22;3293;51.690;5.982;2023-09-18T23:12:59;15.40;99.90
6520;DHT22;3293;51.690;5.982;2023-09-18T23:18:03;15.30;99.90
6520;DHT22;3293;51.690;5.982;2023-09-18T23:23:07;15.30;99.90
6520;DHT22;3293;51.690;5.982;2023-09-18T23:28:08;15.30;99.90
6520;DHT22;3293;51.690;5.982;2023-09-18T23:33:08;15.30;99.90
6520;DHT22;3293;51.690;5.982;2023-09-18T23:38:11;15.30;99.90
6520;DHT22;3293;51.690;5.982;2023-09-18T23:43:11;15.40;99.90
6520;DHT22;3293;51.690;5.982;2023-09-18T23:48:17;15.30;99.90
6520;DHT22;3293;51.690;5.982;2023-09-18T23:53:22;15.30;99.90
6520;DHT22;3293;51.690;5.982;2023-09-18T23:58:24;15.30;99.90
